createdAt,value
2022-07-30T00:01:39.615Z,100.00
2022-07-30T00:04:29.144Z,100.00
2022-07-30T00:07:18.516Z,100.00
2022-07-30T00:10:09.417Z,100.00
2022-07-30T00:12:57.870Z,100.00
2022-07-30T00:15:46.829Z,100.00
2022-07-30T00:18:35.993Z,100.00
2022-07-30T00:21:36.041Z,100.00
2022-07-30T00:24:27.020Z,100.00
2022-07-30T00:27:15.979Z,100.00
2022-07-30T00:30:06.693Z,100.00
2022-07-30T00:32:55.813Z,100.00
2022-07-30T00:35:45.929Z,100.00
2022-07-30T00:38:35.714Z,100.00
2022-07-30T00:41:24.940Z,100.00
2022-07-30T00:44:13.836Z,100.00
2022-07-30T00:47:03.050Z,100.00
2022-07-30T00:49:52.173Z,100.00
2022-07-30T00:52:42.357Z,100.00
2022-07-30T00:55:31.929Z,100.00
2022-07-30T00:58:20.687Z,100.00
2022-07-30T01:01:10.703Z,100.00
2022-07-30T01:04:00.653Z,100.00
2022-07-30T01:06:50.377Z,100.00
2022-07-30T01:09:39.393Z,100.00
2022-07-30T01:12:29.377Z,100.00
2022-07-30T01:15:18.954Z,100.00
2022-07-30T01:18:12.050Z,100.00
2022-07-30T01:21:07.202Z,100.00
2022-07-30T01:24:06.928Z,100.00
2022-07-30T01:26:57.371Z,100.00
2022-07-30T01:29:47.099Z,100.00
2022-07-30T01:32:39.233Z,100.00
2022-07-30T01:35:31.366Z,100.00
2022-07-30T01:38:24.019Z,100.00
2022-07-30T01:41:15.494Z,100.00
2022-07-30T01:44:06.467Z,100.00
2022-07-30T01:46:56.836Z,100.00
2022-07-30T01:49:48.977Z,100.00
2022-07-30T01:52:39.057Z,100.00
2022-07-30T01:55:33.454Z,100.00
2022-07-30T01:58:26.874Z,100.00
2022-07-30T02:01:17.831Z,100.00
2022-07-30T02:04:08.218Z,100.00
2022-07-30T02:07:04.492Z,100.00
2022-07-30T02:09:58.826Z,100.00
2022-07-30T02:12:54.240Z,100.00
2022-07-30T02:15:50.428Z,100.00
2022-07-30T02:18:48.853Z,100.00
2022-07-30T02:21:41.361Z,100.00
2022-07-30T02:24:43.031Z,100.00
2022-07-30T02:27:35.616Z,100.00
2022-07-30T02:30:31.361Z,100.00
2022-07-30T02:33:26.652Z,100.00
2022-07-30T02:36:18.829Z,100.00
2022-07-30T02:39:10.023Z,100.00
2022-07-30T02:42:00.481Z,100.00
2022-07-30T02:44:52.680Z,100.00
2022-07-30T02:47:43.511Z,100.00
2022-07-30T02:50:33.798Z,100.00
2022-07-30T02:53:24.564Z,100.00
2022-07-30T02:56:15.534Z,100.00
2022-07-30T02:59:06.310Z,100.00
2022-07-30T03:01:57.020Z,100.00
2022-07-30T03:04:49.125Z,100.00
2022-07-30T03:07:40.864Z,100.00
2022-07-30T03:10:31.779Z,100.00
2022-07-30T03:13:24.079Z,100.00
2022-07-30T03:16:13.081Z,100.00
2022-07-30T03:19:05.132Z,100.00
2022-07-30T03:21:56.317Z,100.00
2022-07-30T03:24:47.840Z,100.00
2022-07-30T03:27:38.582Z,100.00
2022-07-30T03:30:28.883Z,100.00
2022-07-30T03:33:18.411Z,100.00
2022-07-30T03:36:12.384Z,100.00
2022-07-30T03:39:02.269Z,100.00
2022-07-30T03:41:53.238Z,100.00
2022-07-30T03:44:45.335Z,100.00
2022-07-30T03:47:37.365Z,100.00
2022-07-30T03:50:27.733Z,100.00
2022-07-30T03:53:19.479Z,100.00
2022-07-30T03:56:42.569Z,100.00
2022-07-30T03:59:54.006Z,100.00
2022-07-30T04:02:44.758Z,100.00
2022-07-30T04:05:53.227Z,100.00
2022-07-30T04:08:42.391Z,100.00
2022-07-30T04:11:41.241Z,100.00
2022-07-30T04:14:41.726Z,100.00
2022-07-30T04:17:35.631Z,100.00
2022-07-30T04:20:31.410Z,100.00
2022-07-30T04:23:21.858Z,100.00
2022-07-30T04:26:12.197Z,100.00
2022-07-30T04:29:03.408Z,100.00
2022-07-30T04:31:54.631Z,100.00
2022-07-30T04:35:06.972Z,100.00
2022-07-30T04:38:30.910Z,100.00
2022-07-30T04:41:19.672Z,100.00
2022-07-30T04:44:34.230Z,100.00
2022-07-30T04:47:48.173Z,100.00
2022-07-30T04:50:46.753Z,100.00
2022-07-30T04:53:38.788Z,100.00
2022-07-30T04:56:29.388Z,100.00
2022-07-30T04:59:21.622Z,100.00
2022-07-30T05:02:11.727Z,100.00
2022-07-30T05:05:03.272Z,100.00
2022-07-30T05:07:52.814Z,100.00
2022-07-30T05:10:43.611Z,100.00
2022-07-30T05:13:34.741Z,100.00
2022-07-30T05:16:29.979Z,100.00
2022-07-30T05:19:20.524Z,100.00
2022-07-30T05:22:09.489Z,100.00
2022-07-30T05:25:00.108Z,100.00
2022-07-30T05:27:48.635Z,100.00
2022-07-30T05:30:38.823Z,100.00
2022-07-30T05:33:42.608Z,100.00
2022-07-30T05:36:34.562Z,100.00
2022-07-30T05:39:22.907Z,100.00
2022-07-30T05:42:14.630Z,100.00
2022-07-30T05:45:11.683Z,100.00
2022-07-30T05:48:01.667Z,100.00
2022-07-30T05:50:50.628Z,100.00
2022-07-30T05:53:40.609Z,100.00
2022-07-30T05:56:29.569Z,100.00
2022-07-30T05:59:25.083Z,100.00
2022-07-30T06:02:35.344Z,100.00
2022-07-30T06:05:47.242Z,100.00
2022-07-30T06:08:36.612Z,100.00
2022-07-30T06:11:26.186Z,100.00
2022-07-30T06:14:16.170Z,100.00
2022-07-30T06:17:04.923Z,100.00
2022-07-30T06:20:15.453Z,100.00
2022-07-30T06:23:12.951Z,100.00
2022-07-30T06:26:22.185Z,100.00
2022-07-30T06:29:11.709Z,100.00
2022-07-30T06:32:02.543Z,100.00
2022-07-30T06:34:59.610Z,100.00
2022-07-30T06:38:05.665Z,100.00
2022-07-30T06:41:02.560Z,100.00
2022-07-30T06:44:12.267Z,100.00
2022-07-30T06:47:25.849Z,100.00
2022-07-30T06:50:15.224Z,100.00
2022-07-30T06:53:04.750Z,100.00
2022-07-30T06:56:14.396Z,100.00
2022-07-30T06:59:11.043Z,100.00
2022-07-30T07:02:27.362Z,100.00
2022-07-30T07:05:30.112Z,100.00
2022-07-30T07:08:18.781Z,100.00
2022-07-30T07:11:11.625Z,100.00
2022-07-30T07:14:07.139Z,100.00
2022-07-30T07:16:57.369Z,100.00
2022-07-30T07:20:07.742Z,100.00
2022-07-30T07:23:06.580Z,100.00
2022-07-30T07:25:58.620Z,100.00
2022-07-30T07:28:49.428Z,100.00
2022-07-30T07:32:05.759Z,100.00
2022-07-30T07:34:47.409Z,100.00
2022-07-30T07:37:37.189Z,100.00
2022-07-30T07:40:26.764Z,100.00
2022-07-30T07:43:15.935Z,100.00
2022-07-30T07:46:04.951Z,100.00
2022-07-30T07:48:56.138Z,100.00
2022-07-30T07:51:54.089Z,100.00
2022-07-30T07:54:45.288Z,100.00
2022-07-30T07:57:39.822Z,100.00
2022-07-30T08:00:30.375Z,100.00
2022-07-30T08:03:19.950Z,100.00
2022-07-30T08:06:12.018Z,100.00
2022-07-30T08:09:43.847Z,100.00
2022-07-30T08:12:54.008Z,100.00
2022-07-30T08:16:03.669Z,100.00
2022-07-30T08:19:12.067Z,100.00
2022-07-30T08:22:03.688Z,100.00
2022-07-30T08:24:52.448Z,100.00
2022-07-30T08:27:41.201Z,100.00
2022-07-30T08:30:32.300Z,100.00
2022-07-30T08:33:21.989Z,100.00
2022-07-30T08:36:16.683Z,100.00
2022-07-30T08:39:06.806Z,100.00
2022-07-30T08:41:58.087Z,100.00
2022-07-30T08:44:48.481Z,100.00
2022-07-30T08:47:37.645Z,100.00
2022-07-30T08:50:26.587Z,100.00
2022-07-30T08:53:36.460Z,100.00
2022-07-30T08:56:26.849Z,100.00
2022-07-30T08:59:17.115Z,100.00
2022-07-30T09:02:10.222Z,100.00
2022-07-30T09:05:09.711Z,100.00
2022-07-30T09:07:58.667Z,100.00
2022-07-30T09:10:52.759Z,100.00
2022-07-30T09:13:44.202Z,100.00
2022-07-30T09:16:34.765Z,100.00
2022-07-30T09:19:23.517Z,100.00
2022-07-30T09:22:14.733Z,100.00
2022-07-30T09:25:39.656Z,100.00
2022-07-30T09:29:15.148Z,100.00
2022-07-30T09:32:22.604Z,100.00
2022-07-30T09:35:29.814Z,98.97
2022-07-30T09:38:47.878Z,97.35
2022-07-30T09:42:18.448Z,96.35
2022-07-30T09:45:10.327Z,96.36
2022-07-30T09:48:00.006Z,93.03
2022-07-30T09:50:50.538Z,92.38
2022-07-30T09:53:54.564Z,90.52
2022-07-30T09:56:53.988Z,90.36
2022-07-30T09:59:43.441Z,88.86
2022-07-30T10:02:34.154Z,86.76
2022-07-30T10:05:55.361Z,85.55
2022-07-30T10:08:46.550Z,85.90
2022-07-30T10:11:39.264Z,84.42
2022-07-30T10:14:33.820Z,83.20
2022-07-30T10:17:34.593Z,83.32
2022-07-30T10:20:52.408Z,81.76
2022-07-30T10:24:02.713Z,81.02
2022-07-30T10:27:32.196Z,79.82
2022-07-30T10:30:49.453Z,76.74
2022-07-30T10:33:40.477Z,75.69
2022-07-30T10:36:31.191Z,75.82
2022-07-30T10:39:28.549Z,73.44
2022-07-30T10:42:37.172Z,71.87
2022-07-30T10:45:35.343Z,72.28
2022-07-30T10:48:34.813Z,71.50
2022-07-30T10:51:42.557Z,69.21
2022-07-30T10:54:53.841Z,70.37
2022-07-30T10:58:00.950Z,71.30
2022-07-30T11:01:18.163Z,69.42
2022-07-30T11:04:21.447Z,66.01
2022-07-30T11:07:31.077Z,63.61
2022-07-30T11:10:40.751Z,61.39
2022-07-30T11:13:53.513Z,59.31
2022-07-30T11:17:02.787Z,59.81
2022-07-30T11:20:15.327Z,59.36
2022-07-30T11:23:35.480Z,57.25
2022-07-30T11:26:50.050Z,58.48
2022-07-30T11:29:50.832Z,57.08
2022-07-30T11:32:39.764Z,56.63
2022-07-30T11:35:34.580Z,55.84
2022-07-30T11:38:24.432Z,54.61
2022-07-30T11:41:14.213Z,53.99
2022-07-30T11:44:27.959Z,53.94
2022-07-30T11:47:18.464Z,52.66
2022-07-30T11:50:17.546Z,52.83
2022-07-30T11:53:08.348Z,53.59
2022-07-30T11:55:58.656Z,53.29
2022-07-30T11:58:47.865Z,52.02
2022-07-30T12:01:37.147Z,52.24
2022-07-30T12:04:26.036Z,52.53
2022-07-30T12:07:22.166Z,52.03
2022-07-30T12:10:26.946Z,51.16
2022-07-30T12:13:17.902Z,49.49
2022-07-30T12:16:11.486Z,48.98
2022-07-30T12:19:04.650Z,48.55
2022-07-30T12:21:58.821Z,48.99
2022-07-30T12:24:48.901Z,49.25
2022-07-30T12:27:39.087Z,48.65
2022-07-30T12:30:28.872Z,48.18
2022-07-30T12:33:18.445Z,47.62
2022-07-30T12:36:07.670Z,46.57
2022-07-30T12:38:57.634Z,46.01
2022-07-30T12:41:48.480Z,45.56
2022-07-30T12:44:39.539Z,45.50
2022-07-30T12:47:29.664Z,45.36
2022-07-30T12:50:19.167Z,44.70
2022-07-30T12:53:09.155Z,44.36
2022-07-30T12:56:13.431Z,44.55
2022-07-30T12:59:02.845Z,44.91
2022-07-30T13:01:52.072Z,45.25
2022-07-30T13:05:09.790Z,43.64
2022-07-30T13:08:01.747Z,42.65
2022-07-30T13:10:59.372Z,42.68
2022-07-30T13:13:48.815Z,42.82
2022-07-30T13:16:39.354Z,42.94
2022-07-30T13:19:28.604Z,42.87
2022-07-30T13:22:17.746Z,42.52
2022-07-30T13:25:10.280Z,42.73
2022-07-30T13:27:58.940Z,41.95
2022-07-30T13:30:48.721Z,41.49
2022-07-30T13:33:37.889Z,42.15
2022-07-30T13:36:26.849Z,41.99
2022-07-30T13:39:15.904Z,41.56
2022-07-30T13:42:04.766Z,41.38
2022-07-30T13:44:53.524Z,41.24
2022-07-30T13:47:43.307Z,40.54
2022-07-30T13:50:32.467Z,40.28
2022-07-30T13:53:21.019Z,40.34
2022-07-30T13:56:12.883Z,40.13
2022-07-30T13:59:02.422Z,39.81
2022-07-30T14:01:51.399Z,39.28
2022-07-30T14:04:40.137Z,38.83
2022-07-30T14:07:29.387Z,38.28
2022-07-30T14:10:18.261Z,38.10
2022-07-30T14:13:09.274Z,37.78
2022-07-30T14:15:58.236Z,37.45
2022-07-30T14:18:47.196Z,37.57
2022-07-30T14:21:36.772Z,38.18
2022-07-30T14:24:26.001Z,38.15
2022-07-30T14:27:16.347Z,37.80
2022-07-30T14:30:09.359Z,37.31
2022-07-30T14:33:04.474Z,37.40
2022-07-30T14:35:53.451Z,37.33
2022-07-30T14:38:42.616Z,37.22
2022-07-30T14:41:31.780Z,37.53
2022-07-30T14:44:20.127Z,37.72
2022-07-30T14:47:09.032Z,37.46
2022-07-30T14:49:58.484Z,37.18
2022-07-30T14:52:48.329Z,37.13
2022-07-30T14:55:37.197Z,37.07
2022-07-30T14:58:26.370Z,36.97
2022-07-30T15:01:16.617Z,36.50
2022-07-30T15:04:09.018Z,36.59
2022-07-30T15:06:58.478Z,36.31
2022-07-30T15:09:47.742Z,36.39
2022-07-30T15:12:36.509Z,36.32
2022-07-30T15:15:26.475Z,36.20
2022-07-30T15:18:20.171Z,36.12
2022-07-30T15:21:08.857Z,36.24
2022-07-30T15:23:58.684Z,36.53
2022-07-30T15:26:48.459Z,36.17
2022-07-30T15:29:37.215Z,35.97
2022-07-30T15:32:26.175Z,35.63
2022-07-30T15:35:15.546Z,35.68
2022-07-30T15:38:05.119Z,35.71
2022-07-30T15:40:55.835Z,35.83
2022-07-30T15:43:45.097Z,36.25
2022-07-30T15:46:34.522Z,36.46
2022-07-30T15:49:23.299Z,36.60
2022-07-30T15:52:12.797Z,36.54
2022-07-30T15:55:01.959Z,36.82
2022-07-30T15:57:51.030Z,36.42
2022-07-30T16:00:39.877Z,36.60
2022-07-30T16:03:30.473Z,36.66
2022-07-30T16:06:19.348Z,36.74
2022-07-30T16:09:09.012Z,36.96
2022-07-30T16:11:58.644Z,36.62
2022-07-30T16:14:47.341Z,37.15
2022-07-30T16:17:37.304Z,37.32
2022-07-30T16:20:26.319Z,37.46
2022-07-30T16:23:20.831Z,37.82
2022-07-30T16:26:11.456Z,37.92
2022-07-30T16:29:01.156Z,38.08
2022-07-30T16:31:49.908Z,38.96
2022-07-30T16:34:39.074Z,39.71
2022-07-30T16:37:27.833Z,40.72
2022-07-30T16:40:16.793Z,41.90
2022-07-30T16:43:07.256Z,43.19
2022-07-30T16:45:56.352Z,44.31
2022-07-30T16:48:45.491Z,45.42
2022-07-30T16:51:34.887Z,46.35
2022-07-30T16:54:24.274Z,47.20
2022-07-30T16:57:13.020Z,48.10
2022-07-30T17:00:02.386Z,49.08
2022-07-30T17:02:51.552Z,49.90
2022-07-30T17:05:45.153Z,50.95
2022-07-30T17:08:34.181Z,51.46
2022-07-30T17:11:47.143Z,53.02
2022-07-30T17:14:33.199Z,54.09
2022-07-30T17:17:22.771Z,55.62
2022-07-30T17:20:14.135Z,56.92
2022-07-30T17:23:04.286Z,58.55
2022-07-30T17:25:53.338Z,59.55
2022-07-30T17:28:42.506Z,61.08
2022-07-30T17:31:31.258Z,62.85
2022-07-30T17:34:20.271Z,64.47
2022-07-30T17:37:09.383Z,65.53
2022-07-30T17:40:26.620Z,66.47
2022-07-30T17:43:08.199Z,67.44
2022-07-30T17:45:57.362Z,68.11
2022-07-30T17:48:46.617Z,69.01
2022-07-30T17:51:36.102Z,69.92
2022-07-30T17:54:24.653Z,70.89
2022-07-30T17:57:14.896Z,72.38
2022-07-30T18:00:04.417Z,73.97
2022-07-30T18:02:53.787Z,75.02
2022-07-30T18:05:43.563Z,76.33
2022-07-30T18:08:34.140Z,77.81
2022-07-30T18:11:21.894Z,79.61
2022-07-30T18:14:11.192Z,79.52
2022-07-30T18:17:00.229Z,80.50
2022-07-30T18:19:49.188Z,81.70
2022-07-30T18:22:40.336Z,83.90
2022-07-30T18:25:29.977Z,83.62
2022-07-30T18:28:39.006Z,84.35
2022-07-30T18:31:29.268Z,85.01
2022-07-30T18:34:18.159Z,85.70
2022-07-30T18:37:07.115Z,86.41
2022-07-30T18:39:55.876Z,86.97
2022-07-30T18:42:45.241Z,87.58
2022-07-30T18:45:37.073Z,88.27
2022-07-30T18:48:26.748Z,88.70
2022-07-30T18:51:18.144Z,89.45
2022-07-30T18:54:07.228Z,90.02
2022-07-30T18:56:55.782Z,90.62
2022-07-30T18:59:44.751Z,90.93
2022-07-30T19:02:33.290Z,91.38
2022-07-30T19:05:22.074Z,92.13
2022-07-30T19:08:11.620Z,92.89
2022-07-30T19:11:01.401Z,93.39
2022-07-30T19:13:49.952Z,93.87
2022-07-30T19:16:39.118Z,94.26
2022-07-30T19:19:28.079Z,94.75
2022-07-30T19:22:16.630Z,94.76
2022-07-30T19:25:08.115Z,95.30
2022-07-30T19:27:56.800Z,95.55
2022-07-30T19:30:46.169Z,96.00
2022-07-30T19:33:34.893Z,96.47
2022-07-30T19:36:23.737Z,96.77
2022-07-30T19:39:21.199Z,97.38
2022-07-30T19:42:12.005Z,97.61
2022-07-30T19:45:11.128Z,98.01
2022-07-30T19:48:01.231Z,98.36
2022-07-30T19:50:50.398Z,98.69
2022-07-30T19:53:39.284Z,98.64
2022-07-30T19:56:28.990Z,98.81
2022-07-30T19:59:19.076Z,98.77
2022-07-30T20:02:27.742Z,99.25
2022-07-30T20:05:17.522Z,99.57
2022-07-30T20:08:08.643Z,99.96
2022-07-30T20:10:58.930Z,100.00
2022-07-30T20:13:48.195Z,100.00
2022-07-30T20:16:36.850Z,100.00
2022-07-30T20:19:26.009Z,100.00
2022-07-30T20:22:24.801Z,100.00
2022-07-30T20:25:13.761Z,100.00
2022-07-30T20:28:03.335Z,100.00
2022-07-30T20:30:52.296Z,100.00
2022-07-30T20:33:41.178Z,100.00
2022-07-30T20:36:30.254Z,100.00
2022-07-30T20:39:19.913Z,99.98
2022-07-30T20:42:11.581Z,99.75
2022-07-30T20:45:00.586Z,99.62
2022-07-30T20:47:52.566Z,99.37
2022-07-30T20:50:42.179Z,99.27
2022-07-30T20:53:33.485Z,99.68
2022-07-30T20:56:25.637Z,99.61
2022-07-30T20:59:14.598Z,99.34
2022-07-30T21:02:04.575Z,99.90
2022-07-30T21:04:59.395Z,99.54
2022-07-30T21:07:52.805Z,99.72
2022-07-30T21:10:44.714Z,99.48
2022-07-30T21:13:35.171Z,99.11
2022-07-30T21:16:26.308Z,98.77
2022-07-30T21:19:17.232Z,99.00
2022-07-30T21:22:07.993Z,99.19
2022-07-30T21:24:56.824Z,99.01
2022-07-30T21:27:46.203Z,99.14
2022-07-30T21:30:36.511Z,99.60
2022-07-30T21:33:26.982Z,99.72
2022-07-30T21:36:24.971Z,99.82
2022-07-30T21:39:14.608Z,100.00
2022-07-30T21:42:03.676Z,100.00
2022-07-30T21:44:52.778Z,100.00
2022-07-30T21:47:41.737Z,100.00
2022-07-30T21:50:38.079Z,100.00
2022-07-30T21:53:44.655Z,100.00
2022-07-30T21:56:34.631Z,100.00
2022-07-30T21:59:30.552Z,100.00
2022-07-30T22:02:20.446Z,100.00
2022-07-30T22:05:12.845Z,100.00
2022-07-30T22:08:02.352Z,100.00
2022-07-30T22:10:52.700Z,100.00
2022-07-30T22:13:51.205Z,100.00
2022-07-30T22:16:46.132Z,100.00
2022-07-30T22:19:35.760Z,100.00
2022-07-30T22:22:27.163Z,100.00
2022-07-30T22:25:18.027Z,100.00
2022-07-30T22:28:07.391Z,100.00
2022-07-30T22:30:56.970Z,100.00
2022-07-30T22:33:46.135Z,100.00
2022-07-30T22:36:34.757Z,100.00
2022-07-30T22:39:23.861Z,100.00
2022-07-30T22:42:24.562Z,100.00
2022-07-30T22:45:15.493Z,100.00
2022-07-30T22:48:10.046Z,100.00
2022-07-30T22:51:00.172Z,100.00
2022-07-30T22:54:02.986Z,100.00
2022-07-30T22:57:03.985Z,100.00
2022-07-30T22:59:58.171Z,100.00
2022-07-30T23:02:50.827Z,100.00
2022-07-30T23:05:40.024Z,100.00
2022-07-30T23:08:32.023Z,100.00
2022-07-30T23:11:21.201Z,100.00
2022-07-30T23:14:13.010Z,100.00
2022-07-30T23:17:02.913Z,100.00
2022-07-30T23:19:52.166Z,100.00
2022-07-30T23:22:41.458Z,100.00
2022-07-30T23:25:34.560Z,100.00
2022-07-30T23:28:28.470Z,100.00
2022-07-30T23:31:17.637Z,100.00
2022-07-30T23:34:06.798Z,100.00
2022-07-30T23:36:55.758Z,100.00
2022-07-30T23:39:44.512Z,100.00
2022-07-30T23:42:34.088Z,100.00
2022-07-30T23:45:22.637Z,100.00
2022-07-30T23:48:12.005Z,100.00
2022-07-30T23:51:01.376Z,100.00
2022-07-30T23:53:51.582Z,100.00
2022-07-30T23:56:43.185Z,100.00
2022-07-30T23:59:40.591Z,100.00
